sensor_id;sensor_type;location;lat;lon;timestamp;P1;durP1;ratioP1;P2;durP2;ratioP2
59930;SDS011;45790;51.538;6.736;2023-04-27T00:00:32;7.55;;;3.90;;
59930;SDS011;45790;51.538;6.736;2023-04-27T00:02:57;9.50;;;4.30;;
59930;SDS011;45790;51.538;6.736;2023-04-27T00:05:22;7.80;;;3.95;;
59930;SDS011;45790;51.538;6.736;2023-04-27T00:07:48;7.65;;;4.28;;
59930;SDS011;45790;51.538;6.736;2023-04-27T00:10:13;9.60;;;4.07;;
59930;SDS011;45790;51.538;6.736;2023-04-27T00:12:38;8.60;;;4.25;;
59930;SDS011;45790;51.538;6.736;2023-04-27T00:15:06;7.50;;;3.88;;
59930;SDS011;45790;51.538;6.736;2023-04-27T00:17:31;7.25;;;3.90;;
59930;SDS011;45790;51.538;6.736;2023-04-27T00:19:57;6.97;;;3.97;;
59930;SDS011;45790;51.538;6.736;2023-04-27T00:22:22;6.88;;;4.20;;
59930;SDS011;45790;51.538;6.736;2023-04-27T00:24:48;8.77;;;4.53;;
59930;SDS011;45790;51.538;6.736;2023-04-27T00:27:13;7.78;;;3.92;;
59930;SDS011;45790;51.538;6.736;2023-04-27T00:29:38;10.63;;;4.93;;
59930;SDS011;45790;51.538;6.736;2023-04-27T00:32:07;10.18;;;4.72;;
59930;SDS011;45790;51.538;6.736;2023-04-27T00:34:32;7.47;;;4.82;;
59930;SDS011;45790;51.538;6.736;2023-04-27T00:36:57;9.15;;;4.07;;
59930;SDS011;45790;51.538;6.736;2023-04-27T00:39:22;9.27;;;4.47;;
59930;SDS011;45790;51.538;6.736;2023-04-27T00:41:48;9.40;;;4.05;;
59930;SDS011;45790;51.538;6.736;2023-04-27T00:44:20;7.50;;;3.60;;
59930;SDS011;45790;51.538;6.736;2023-04-27T00:46:45;6.22;;;3.70;;
59930;SDS011;45790;51.538;6.736;2023-04-27T00:49:11;6.28;;;3.90;;
59930;SDS011;45790;51.538;6.736;2023-04-27T00:51:36;9.20;;;4.55;;
59930;SDS011;45790;51.538;6.736;2023-04-27T00:54:01;11.68;;;4.00;;
59930;SDS011;45790;51.538;6.736;2023-04-27T00:56:26;8.70;;;4.18;;
59930;SDS011;45790;51.538;6.736;2023-04-27T00:58:52;7.47;;;3.83;;
59930;SDS011;45790;51.538;6.736;2023-04-27T01:01:17;8.05;;;4.07;;
59930;SDS011;45790;51.538;6.736;2023-04-27T01:03:44;8.65;;;4.13;;
59930;SDS011;45790;51.538;6.736;2023-04-27T01:06:10;8.85;;;4.32;;
59930;SDS011;45790;51.538;6.736;2023-04-27T01:08:35;8.75;;;4.20;;
59930;SDS011;45790;51.538;6.736;2023-04-27T01:11:01;7.28;;;3.90;;
59930;SDS011;45790;51.538;6.736;2023-04-27T01:13:27;7.25;;;4.25;;
59930;SDS011;45790;51.538;6.736;2023-04-27T01:15:52;9.32;;;4.43;;
59930;SDS011;45790;51.538;6.736;2023-04-27T01:18:17;7.57;;;4.45;;
59930;SDS011;45790;51.538;6.736;2023-04-27T01:20:43;8.45;;;4.47;;
59930;SDS011;45790;51.538;6.736;2023-04-27T01:23:12;9.10;;;4.25;;
59930;SDS011;45790;51.538;6.736;2023-04-27T01:25:37;8.07;;;4.13;;
59930;SDS011;45790;51.538;6.736;2023-04-27T01:28:03;12.45;;;5.93;;
59930;SDS011;45790;51.538;6.736;2023-04-27T01:30:28;12.63;;;4.63;;
59930;SDS011;45790;51.538;6.736;2023-04-27T01:32:54;9.73;;;4.60;;
59930;SDS011;45790;51.538;6.736;2023-04-27T01:35:19;8.18;;;4.38;;
59930;SDS011;45790;51.538;6.736;2023-04-27T01:37:45;12.18;;;4.57;;
59930;SDS011;45790;51.538;6.736;2023-04-27T01:40:10;8.40;;;4.10;;
59930;SDS011;45790;51.538;6.736;2023-04-27T01:42:35;8.65;;;4.25;;
59930;SDS011;45790;51.538;6.736;2023-04-27T01:45:01;7.97;;;4.53;;
59930;SDS011;45790;51.538;6.736;2023-04-27T01:47:26;11.02;;;5.40;;
59930;SDS011;45790;51.538;6.736;2023-04-27T01:49:52;7.70;;;4.60;;
59930;SDS011;45790;51.538;6.736;2023-04-27T01:52:17;9.77;;;4.45;;
59930;SDS011;45790;51.538;6.736;2023-04-27T01:54:42;8.38;;;4.75;;
59930;SDS011;45790;51.538;6.736;2023-04-27T01:57:07;10.40;;;4.80;;
59930;SDS011;45790;51.538;6.736;2023-04-27T01:59:32;10.45;;;4.80;;
59930;SDS011;45790;51.538;6.736;2023-04-27T02:01:58;10.55;;;5.80;;
59930;SDS011;45790;51.538;6.736;2023-04-27T02:04:23;10.93;;;5.00;;
59930;SDS011;45790;51.538;6.736;2023-04-27T02:06:48;8.18;;;4.90;;
59930;SDS011;45790;51.538;6.736;2023-04-27T02:09:14;10.05;;;4.80;;
59930;SDS011;45790;51.538;6.736;2023-04-27T02:11:39;9.68;;;4.78;;
59930;SDS011;45790;51.538;6.736;2023-04-27T02:14:04;11.20;;;4.95;;
59930;SDS011;45790;51.538;6.736;2023-04-27T02:16:29;14.48;;;5.53;;
59930;SDS011;45790;51.538;6.736;2023-04-27T02:18:55;13.35;;;5.00;;
59930;SDS011;45790;51.538;6.736;2023-04-27T02:21:20;10.90;;;5.00;;
59930;SDS011;45790;51.538;6.736;2023-04-27T02:23:45;10.98;;;4.60;;
59930;SDS011;45790;51.538;6.736;2023-04-27T02:26:19;9.15;;;5.43;;
59930;SDS011;45790;51.538;6.736;2023-04-27T02:28:46;9.48;;;4.65;;
59930;SDS011;45790;51.538;6.736;2023-04-27T02:31:12;9.30;;;4.90;;
59930;SDS011;45790;51.538;6.736;2023-04-27T02:33:38;10.95;;;4.90;;
59930;SDS011;45790;51.538;6.736;2023-04-27T02:36:03;9.70;;;4.93;;
59930;SDS011;45790;51.538;6.736;2023-04-27T02:38:29;9.13;;;4.90;;
59930;SDS011;45790;51.538;6.736;2023-04-27T02:40:54;9.10;;;4.80;;
59930;SDS011;45790;51.538;6.736;2023-04-27T02:43:19;9.20;;;4.63;;
59930;SDS011;45790;51.538;6.736;2023-04-27T02:45:45;12.07;;;5.97;;
59930;SDS011;45790;51.538;6.736;2023-04-27T02:48:10;10.48;;;5.38;;
59930;SDS011;45790;51.538;6.736;2023-04-27T02:50:41;11.52;;;5.80;;
59930;SDS011;45790;51.538;6.736;2023-04-27T02:53:07;9.70;;;4.90;;
59930;SDS011;45790;51.538;6.736;2023-04-27T02:55:33;10.20;;;5.30;;
59930;SDS011;45790;51.538;6.736;2023-04-27T02:57:58;14.07;;;5.65;;
59930;SDS011;45790;51.538;6.736;2023-04-27T03:00:23;9.07;;;5.18;;
59930;SDS011;45790;51.538;6.736;2023-04-27T03:02:49;10.93;;;5.22;;
59930;SDS011;45790;51.538;6.736;2023-04-27T03:05:14;13.38;;;5.25;;
59930;SDS011;45790;51.538;6.736;2023-04-27T03:07:40;13.43;;;5.38;;
59930;SDS011;45790;51.538;6.736;2023-04-27T03:10:05;12.27;;;5.43;;
59930;SDS011;45790;51.538;6.736;2023-04-27T03:12:30;9.43;;;5.43;;
59930;SDS011;45790;51.538;6.736;2023-04-27T03:14:56;12.63;;;5.30;;
59930;SDS011;45790;51.538;6.736;2023-04-27T03:17:21;13.65;;;5.55;;
59930;SDS011;45790;51.538;6.736;2023-04-27T03:19:46;12.60;;;5.80;;
59930;SDS011;45790;51.538;6.736;2023-04-27T03:22:13;11.90;;;5.00;;
59930;SDS011;45790;51.538;6.736;2023-04-27T03:24:38;11.00;;;5.57;;
59930;SDS011;45790;51.538;6.736;2023-04-27T03:27:03;8.70;;;4.97;;
59930;SDS011;45790;51.538;6.736;2023-04-27T03:29:28;10.25;;;5.63;;
59930;SDS011;45790;51.538;6.736;2023-04-27T03:31:53;11.65;;;5.38;;
59930;SDS011;45790;51.538;6.736;2023-04-27T03:34:19;13.05;;;6.20;;
59930;SDS011;45790;51.538;6.736;2023-04-27T03:36:45;12.82;;;6.38;;
59930;SDS011;45790;51.538;6.736;2023-04-27T03:39:10;12.07;;;5.57;;
59930;SDS011;45790;51.538;6.736;2023-04-27T03:41:36;14.43;;;5.75;;
59930;SDS011;45790;51.538;6.736;2023-04-27T03:44:01;11.55;;;5.90;;
59930;SDS011;45790;51.538;6.736;2023-04-27T03:46:26;11.18;;;5.78;;
59930;SDS011;45790;51.538;6.736;2023-04-27T03:48:52;11.65;;;5.22;;
59930;SDS011;45790;51.538;6.736;2023-04-27T03:51:17;9.20;;;5.00;;
59930;SDS011;45790;51.538;6.736;2023-04-27T03:53:43;13.95;;;5.55;;
59930;SDS011;45790;51.538;6.736;2023-04-27T03:56:08;14.32;;;5.88;;
59930;SDS011;45790;51.538;6.736;2023-04-27T03:58:34;10.35;;;5.88;;
59930;SDS011;45790;51.538;6.736;2023-04-27T04:01:02;13.10;;;5.80;;
59930;SDS011;45790;51.538;6.736;2023-04-27T04:03:27;12.70;;;5.90;;
59930;SDS011;45790;51.538;6.736;2023-04-27T04:05:52;10.77;;;5.38;;
59930;SDS011;45790;51.538;6.736;2023-04-27T04:08:17;12.93;;;5.75;;
59930;SDS011;45790;51.538;6.736;2023-04-27T04:10:43;14.43;;;6.03;;
59930;SDS011;45790;51.538;6.736;2023-04-27T04:13:08;10.70;;;5.38;;
59930;SDS011;45790;51.538;6.736;2023-04-27T04:15:33;11.70;;;6.40;;
59930;SDS011;45790;51.538;6.736;2023-04-27T04:17:58;12.25;;;5.78;;
59930;SDS011;45790;51.538;6.736;2023-04-27T04:20:24;13.23;;;5.85;;
59930;SDS011;45790;51.538;6.736;2023-04-27T04:22:49;11.13;;;5.95;;
59930;SDS011;45790;51.538;6.736;2023-04-27T04:25:14;13.98;;;5.57;;
59930;SDS011;45790;51.538;6.736;2023-04-27T04:27:40;13.15;;;5.68;;
59930;SDS011;45790;51.538;6.736;2023-04-27T04:30:05;18.67;;;6.57;;
59930;SDS011;45790;51.538;6.736;2023-04-27T04:32:31;11.40;;;6.45;;
59930;SDS011;45790;51.538;6.736;2023-04-27T04:34:57;11.40;;;5.53;;
59930;SDS011;45790;51.538;6.736;2023-04-27T04:37:23;13.25;;;6.15;;
59930;SDS011;45790;51.538;6.736;2023-04-27T04:39:48;14.70;;;6.75;;
59930;SDS011;45790;51.538;6.736;2023-04-27T04:42:13;12.30;;;5.70;;
59930;SDS011;45790;51.538;6.736;2023-04-27T04:44:39;10.25;;;5.20;;
59930;SDS011;45790;51.538;6.736;2023-04-27T04:47:04;11.68;;;5.88;;
59930;SDS011;45790;51.538;6.736;2023-04-27T04:49:30;9.50;;;5.97;;
59930;SDS011;45790;51.538;6.736;2023-04-27T04:51:55;14.07;;;5.32;;
59930;SDS011;45790;51.538;6.736;2023-04-27T04:54:20;10.57;;;5.57;;
59930;SDS011;45790;51.538;6.736;2023-04-27T04:56:46;12.82;;;5.55;;
59930;SDS011;45790;51.538;6.736;2023-04-27T04:59:11;12.00;;;5.72;;
59930;SDS011;45790;51.538;6.736;2023-04-27T05:01:36;12.23;;;5.63;;
59930;SDS011;45790;51.538;6.736;2023-04-27T05:04:01;11.18;;;5.20;;
59930;SDS011;45790;51.538;6.736;2023-04-27T05:06:27;10.07;;;5.20;;
59930;SDS011;45790;51.538;6.736;2023-04-27T05:08:52;11.23;;;5.25;;
59930;SDS011;45790;51.538;6.736;2023-04-27T05:11:17;13.60;;;5.95;;
59930;SDS011;45790;51.538;6.736;2023-04-27T05:13:42;17.33;;;5.78;;
59930;SDS011;45790;51.538;6.736;2023-04-27T05:16:08;9.57;;;4.82;;
59930;SDS011;45790;51.538;6.736;2023-04-27T05:18:33;10.05;;;4.82;;
59930;SDS011;45790;51.538;6.736;2023-04-27T05:20:59;13.20;;;4.72;;
59930;SDS011;45790;51.538;6.736;2023-04-27T05:23:24;10.48;;;5.10;;
59930;SDS011;45790;51.538;6.736;2023-04-27T05:25:50;10.40;;;4.93;;
59930;SDS011;45790;51.538;6.736;2023-04-27T05:28:15;9.23;;;4.47;;
59930;SDS011;45790;51.538;6.736;2023-04-27T05:30:41;9.93;;;4.78;;
59930;SDS011;45790;51.538;6.736;2023-04-27T05:33:06;11.30;;;4.57;;
59930;SDS011;45790;51.538;6.736;2023-04-27T05:35:34;11.90;;;4.75;;
59930;SDS011;45790;51.538;6.736;2023-04-27T05:37:59;11.38;;;4.95;;
59930;SDS011;45790;51.538;6.736;2023-04-27T05:40:25;11.63;;;4.88;;
59930;SDS011;45790;51.538;6.736;2023-04-27T05:42:50;13.23;;;5.50;;
59930;SDS011;45790;51.538;6.736;2023-04-27T05:45:16;13.10;;;5.63;;
59930;SDS011;45790;51.538;6.736;2023-04-27T05:47:41;10.77;;;5.03;;
59930;SDS011;45790;51.538;6.736;2023-04-27T05:50:06;9.40;;;5.18;;
59930;SDS011;45790;51.538;6.736;2023-04-27T05:52:32;11.40;;;4.82;;
59930;SDS011;45790;51.538;6.736;2023-04-27T05:54:57;9.35;;;4.95;;
59930;SDS011;45790;51.538;6.736;2023-04-27T05:57:23;10.10;;;5.32;;
59930;SDS011;45790;51.538;6.736;2023-04-27T05:59:48;13.00;;;4.82;;
59930;SDS011;45790;51.538;6.736;2023-04-27T06:02:14;10.63;;;5.38;;
59930;SDS011;45790;51.538;6.736;2023-04-27T06:04:39;12.32;;;5.15;;
59930;SDS011;45790;51.538;6.736;2023-04-27T06:07:08;9.25;;;5.05;;
59930;SDS011;45790;51.538;6.736;2023-04-27T06:09:33;8.05;;;4.72;;
59930;SDS011;45790;51.538;6.736;2023-04-27T06:11:58;12.10;;;4.78;;
59930;SDS011;45790;51.538;6.736;2023-04-27T06:14:23;11.43;;;5.05;;
59930;SDS011;45790;51.538;6.736;2023-04-27T06:16:49;10.32;;;5.10;;
59930;SDS011;45790;51.538;6.736;2023-04-27T06:19:15;11.20;;;5.03;;
59930;SDS011;45790;51.538;6.736;2023-04-27T06:21:40;14.73;;;5.53;;
59930;SDS011;45790;51.538;6.736;2023-04-27T06:24:05;12.35;;;4.82;;
59930;SDS011;45790;51.538;6.736;2023-04-27T06:26:30;7.57;;;3.95;;
59930;SDS011;45790;51.538;6.736;2023-04-27T06:28:56;6.97;;;3.63;;
59930;SDS011;45790;51.538;6.736;2023-04-27T06:31:22;9.95;;;4.00;;
59930;SDS011;45790;51.538;6.736;2023-04-27T06:33:47;8.43;;;3.60;;
59930;SDS011;45790;51.538;6.736;2023-04-27T06:36:12;11.18;;;4.57;;
59930;SDS011;45790;51.538;6.736;2023-04-27T06:38:37;7.68;;;3.50;;
59930;SDS011;45790;51.538;6.736;2023-04-27T06:41:03;7.03;;;3.50;;
59930;SDS011;45790;51.538;6.736;2023-04-27T06:43:28;6.72;;;3.25;;
59930;SDS011;45790;51.538;6.736;2023-04-27T06:45:54;8.52;;;3.72;;
59930;SDS011;45790;51.538;6.736;2023-04-27T06:48:19;7.07;;;3.08;;
59930;SDS011;45790;51.538;6.736;2023-04-27T06:50:45;6.85;;;3.08;;
59930;SDS011;45790;51.538;6.736;2023-04-27T06:53:10;5.90;;;3.00;;
59930;SDS011;45790;51.538;6.736;2023-04-27T06:55:36;9.85;;;4.45;;
59930;SDS011;45790;51.538;6.736;2023-04-27T06:58:01;7.32;;;3.22;;
59930;SDS011;45790;51.538;6.736;2023-04-27T07:00:29;4.97;;;2.75;;
59930;SDS011;45790;51.538;6.736;2023-04-27T07:02:55;8.98;;;2.80;;
59930;SDS011;45790;51.538;6.736;2023-04-27T07:05:20;7.57;;;2.67;;
59930;SDS011;45790;51.538;6.736;2023-04-27T07:07:45;9.25;;;3.20;;
59930;SDS011;45790;51.538;6.736;2023-04-27T07:10:14;6.20;;;2.42;;
59930;SDS011;45790;51.538;6.736;2023-04-27T07:12:40;5.30;;;2.47;;
59930;SDS011;45790;51.538;6.736;2023-04-27T07:15:06;8.70;;;3.10;;
59930;SDS011;45790;51.538;6.736;2023-04-27T07:17:31;5.15;;;2.53;;
59930;SDS011;45790;51.538;6.736;2023-04-27T07:19:57;7.10;;;2.90;;
59930;SDS011;45790;51.538;6.736;2023-04-27T07:22:22;7.85;;;2.60;;
59930;SDS011;45790;51.538;6.736;2023-04-27T07:24:48;6.38;;;3.10;;
59930;SDS011;45790;51.538;6.736;2023-04-27T07:27:13;8.40;;;3.00;;
59930;SDS011;45790;51.538;6.736;2023-04-27T07:29:39;7.82;;;3.70;;
59930;SDS011;45790;51.538;6.736;2023-04-27T07:32:05;8.85;;;3.55;;
59930;SDS011;45790;51.538;6.736;2023-04-27T07:34:31;9.05;;;3.83;;
59930;SDS011;45790;51.538;6.736;2023-04-27T07:37:00;8.68;;;3.42;;
59930;SDS011;45790;51.538;6.736;2023-04-27T07:39:25;8.70;;;3.63;;
59930;SDS011;45790;51.538;6.736;2023-04-27T07:41:51;11.10;;;3.67;;
59930;SDS011;45790;51.538;6.736;2023-04-27T07:44:17;9.52;;;4.10;;
59930;SDS011;45790;51.538;6.736;2023-04-27T07:46:42;8.23;;;3.35;;
59930;SDS011;45790;51.538;6.736;2023-04-27T07:49:08;7.63;;;3.67;;
59930;SDS011;45790;51.538;6.736;2023-04-27T07:51:33;10.82;;;3.80;;
59930;SDS011;45790;51.538;6.736;2023-04-27T07:53:58;8.15;;;3.60;;
59930;SDS011;45790;51.538;6.736;2023-04-27T07:56:23;9.52;;;3.83;;
59930;SDS011;45790;51.538;6.736;2023-04-27T07:58:49;12.50;;;3.80;;
59930;SDS011;45790;51.538;6.736;2023-04-27T08:01:14;6.25;;;2.92;;
59930;SDS011;45790;51.538;6.736;2023-04-27T08:03:40;6.47;;;3.20;;
59930;SDS011;45790;51.538;6.736;2023-04-27T08:06:05;7.63;;;3.45;;
59930;SDS011;45790;51.538;6.736;2023-04-27T08:08:31;5.90;;;2.58;;
59930;SDS011;45790;51.538;6.736;2023-04-27T08:10:56;7.72;;;3.10;;
59930;SDS011;45790;51.538;6.736;2023-04-27T08:13:21;6.22;;;2.88;;
59930;SDS011;45790;51.538;6.736;2023-04-27T08:15:47;7.88;;;3.35;;
59930;SDS011;45790;51.538;6.736;2023-04-27T08:18:12;10.20;;;3.70;;
59930;SDS011;45790;51.538;6.736;2023-04-27T08:20:37;6.88;;;3.65;;
59930;SDS011;45790;51.538;6.736;2023-04-27T08:23:03;7.65;;;3.30;;
59930;SDS011;45790;51.538;6.736;2023-04-27T08:25:28;7.05;;;3.15;;
59930;SDS011;45790;51.538;6.736;2023-04-27T08:27:53;7.60;;;3.20;;
59930;SDS011;45790;51.538;6.736;2023-04-27T08:30:18;8.03;;;2.90;;
59930;SDS011;45790;51.538;6.736;2023-04-27T08:32:43;10.95;;;3.30;;
59930;SDS011;45790;51.538;6.736;2023-04-27T08:35:09;8.25;;;3.25;;
59930;SDS011;45790;51.538;6.736;2023-04-27T08:37:35;6.57;;;2.83;;
59930;SDS011;45790;51.538;6.736;2023-04-27T08:40:02;6.13;;;2.80;;
59930;SDS011;45790;51.538;6.736;2023-04-27T08:42:28;7.25;;;2.85;;
59930;SDS011;45790;51.538;6.736;2023-04-27T08:44:54;6.30;;;2.80;;
59930;SDS011;45790;51.538;6.736;2023-04-27T08:47:19;9.38;;;2.90;;
59930;SDS011;45790;51.538;6.736;2023-04-27T08:49:45;6.18;;;2.40;;
59930;SDS011;45790;51.538;6.736;2023-04-27T08:52:11;6.65;;;2.50;;
59930;SDS011;45790;51.538;6.736;2023-04-27T08:54:37;5.80;;;2.58;;
59930;SDS011;45790;51.538;6.736;2023-04-27T08:57:07;8.57;;;2.65;;
59930;SDS011;45790;51.538;6.736;2023-04-27T08:59:35;9.73;;;2.70;;
59930;SDS011;45790;51.538;6.736;2023-04-27T09:02:01;5.85;;;2.42;;
59930;SDS011;45790;51.538;6.736;2023-04-27T09:04:39;5.88;;;2.10;;
59930;SDS011;45790;51.538;6.736;2023-04-27T09:07:14;4.88;;;1.92;;
59930;SDS011;45790;51.538;6.736;2023-04-27T09:09:39;6.43;;;2.47;;
59930;SDS011;45790;51.538;6.736;2023-04-27T09:12:18;5.88;;;1.90;;
59930;SDS011;45790;51.538;6.736;2023-04-27T09:15:00;7.70;;;2.30;;
59930;SDS011;45790;51.538;6.736;2023-04-27T09:17:26;4.28;;;1.90;;
59930;SDS011;45790;51.538;6.736;2023-04-27T09:20:02;8.48;;;2.08;;
59930;SDS011;45790;51.538;6.736;2023-04-27T09:22:30;5.90;;;2.17;;
59930;SDS011;45790;51.538;6.736;2023-04-27T09:24:56;4.55;;;1.90;;
59930;SDS011;45790;51.538;6.736;2023-04-27T09:27:21;8.77;;;2.20;;
59930;SDS011;45790;51.538;6.736;2023-04-27T09:29:47;7.45;;;2.30;;
59930;SDS011;45790;51.538;6.736;2023-04-27T09:32:15;5.85;;;2.00;;
59930;SDS011;45790;51.538;6.736;2023-04-27T09:34:41;3.83;;;1.60;;
59930;SDS011;45790;51.538;6.736;2023-04-27T09:37:06;5.78;;;1.80;;
59930;SDS011;45790;51.538;6.736;2023-04-27T09:39:32;3.85;;;1.70;;
59930;SDS011;45790;51.538;6.736;2023-04-27T09:41:57;4.75;;;2.08;;
59930;SDS011;45790;51.538;6.736;2023-04-27T09:44:23;3.42;;;1.58;;
59930;SDS011;45790;51.538;6.736;2023-04-27T09:46:48;5.80;;;2.30;;
59930;SDS011;45790;51.538;6.736;2023-04-27T09:49:15;5.13;;;2.25;;
59930;SDS011;45790;51.538;6.736;2023-04-27T09:51:41;5.85;;;1.90;;
59930;SDS011;45790;51.538;6.736;2023-04-27T09:54:07;5.10;;;1.95;;
59930;SDS011;45790;51.538;6.736;2023-04-27T09:56:46;6.10;;;1.80;;
59930;SDS011;45790;51.538;6.736;2023-04-27T09:59:28;5.47;;;1.90;;
59930;SDS011;45790;51.538;6.736;2023-04-27T10:01:58;4.57;;;2.08;;
59930;SDS011;45790;51.538;6.736;2023-04-27T10:04:40;3.75;;;1.90;;
59930;SDS011;45790;51.538;6.736;2023-04-27T10:07:10;4.78;;;1.92;;
59930;SDS011;45790;51.538;6.736;2023-04-27T10:09:47;3.40;;;2.00;;
59930;SDS011;45790;51.538;6.736;2023-04-27T10:12:31;5.93;;;2.10;;
59930;SDS011;45790;51.538;6.736;2023-04-27T10:14:57;5.88;;;2.20;;
59930;SDS011;45790;51.538;6.736;2023-04-27T10:17:24;7.13;;;2.30;;
59930;SDS011;45790;51.538;6.736;2023-04-27T10:25:11;3.47;;;2.20;;
59930;SDS011;45790;51.538;6.736;2023-04-27T10:27:37;4.43;;;2.08;;
59930;SDS011;45790;51.538;6.736;2023-04-27T10:30:07;4.65;;;1.98;;
59930;SDS011;45790;51.538;6.736;2023-04-27T10:32:32;7.17;;;2.03;;
59930;SDS011;45790;51.538;6.736;2023-04-27T10:35:01;7.88;;;1.90;;
59930;SDS011;45790;51.538;6.736;2023-04-27T10:37:37;4.50;;;2.08;;
59930;SDS011;45790;51.538;6.736;2023-04-27T10:40:03;5.97;;;2.00;;
59930;SDS011;45790;51.538;6.736;2023-04-27T10:42:29;6.78;;;2.15;;
59930;SDS011;45790;51.538;6.736;2023-04-27T10:44:57;5.45;;;2.42;;
59930;SDS011;45790;51.538;6.736;2023-04-27T10:47:23;7.93;;;2.45;;
59930;SDS011;45790;51.538;6.736;2023-04-27T10:49:51;4.30;;;2.30;;
59930;SDS011;45790;51.538;6.736;2023-04-27T10:52:16;6.53;;;2.50;;
59930;SDS011;45790;51.538;6.736;2023-04-27T10:54:44;4.43;;;2.28;;
59930;SDS011;45790;51.538;6.736;2023-04-27T10:57:10;6.72;;;2.45;;
59930;SDS011;45790;51.538;6.736;2023-04-27T10:59:49;4.47;;;2.45;;
59930;SDS011;45790;51.538;6.736;2023-04-27T11:02:14;5.10;;;2.28;;
59930;SDS011;45790;51.538;6.736;2023-04-27T11:04:40;5.55;;;2.30;;
59930;SDS011;45790;51.538;6.736;2023-04-27T11:07:09;7.95;;;2.55;;
59930;SDS011;45790;51.538;6.736;2023-04-27T11:09:35;4.55;;;2.40;;
59930;SDS011;45790;51.538;6.736;2023-04-27T11:12:01;4.53;;;2.22;;
59930;SDS011;45790;51.538;6.736;2023-04-27T11:14:27;5.15;;;2.60;;
59930;SDS011;45790;51.538;6.736;2023-04-27T11:16:53;5.65;;;2.33;;
59930;SDS011;45790;51.538;6.736;2023-04-27T11:19:18;6.10;;;1.90;;
59930;SDS011;45790;51.538;6.736;2023-04-27T11:21:44;4.45;;;2.28;;
59930;SDS011;45790;51.538;6.736;2023-04-27T11:24:09;5.43;;;2.50;;
59930;SDS011;45790;51.538;6.736;2023-04-27T11:26:34;6.13;;;2.55;;
59930;SDS011;45790;51.538;6.736;2023-04-27T11:29:01;4.55;;;2.30;;
59930;SDS011;45790;51.538;6.736;2023-04-27T11:31:41;6.35;;;2.63;;
59930;SDS011;45790;51.538;6.736;2023-04-27T11:34:14;5.60;;;2.50;;
59930;SDS011;45790;51.538;6.736;2023-04-27T11:36:39;8.20;;;2.70;;
59930;SDS011;45790;51.538;6.736;2023-04-27T11:39:05;7.15;;;2.95;;
59930;SDS011;45790;51.538;6.736;2023-04-27T11:41:36;4.97;;;2.60;;
59930;SDS011;45790;51.538;6.736;2023-04-27T11:44:06;5.45;;;2.45;;
59930;SDS011;45790;51.538;6.736;2023-04-27T11:46:33;6.60;;;2.43;;
59930;SDS011;45790;51.538;6.736;2023-04-27T11:49:01;5.35;;;2.45;;
59930;SDS011;45790;51.538;6.736;2023-04-27T11:51:28;8.90;;;2.60;;
59930;SDS011;45790;51.538;6.736;2023-04-27T11:53:53;5.43;;;2.65;;
59930;SDS011;45790;51.538;6.736;2023-04-27T11:56:18;5.43;;;2.60;;
59930;SDS011;45790;51.538;6.736;2023-04-27T11:58:43;6.43;;;2.80;;
59930;SDS011;45790;51.538;6.736;2023-04-27T12:01:09;5.90;;;2.60;;
59930;SDS011;45790;51.538;6.736;2023-04-27T12:03:37;7.18;;;2.47;;
59930;SDS011;45790;51.538;6.736;2023-04-27T12:06:02;5.78;;;2.80;;
59930;SDS011;45790;51.538;6.736;2023-04-27T12:08:28;7.65;;;2.90;;
59930;SDS011;45790;51.538;6.736;2023-04-27T12:10:53;10.15;;;2.78;;
59930;SDS011;45790;51.538;6.736;2023-04-27T12:13:19;6.00;;;2.92;;
59930;SDS011;45790;51.538;6.736;2023-04-27T12:15:45;6.07;;;2.70;;
59930;SDS011;45790;51.538;6.736;2023-04-27T12:18:12;8.45;;;2.65;;
59930;SDS011;45790;51.538;6.736;2023-04-27T12:20:38;4.43;;;2.70;;
59930;SDS011;45790;51.538;6.736;2023-04-27T12:23:04;7.07;;;2.80;;
59930;SDS011;45790;51.538;6.736;2023-04-27T12:25:29;5.35;;;2.72;;
59930;SDS011;45790;51.538;6.736;2023-04-27T12:27:54;8.75;;;2.58;;
59930;SDS011;45790;51.538;6.736;2023-04-27T12:30:21;5.28;;;2.50;;
59930;SDS011;45790;51.538;6.736;2023-04-27T12:32:46;3.95;;;2.70;;
59930;SDS011;45790;51.538;6.736;2023-04-27T12:35:11;7.10;;;3.17;;
59930;SDS011;45790;51.538;6.736;2023-04-27T12:37:37;6.40;;;3.10;;
59930;SDS011;45790;51.538;6.736;2023-04-27T12:40:02;7.03;;;3.35;;
59930;SDS011;45790;51.538;6.736;2023-04-27T12:42:30;6.72;;;3.45;;
59930;SDS011;45790;51.538;6.736;2023-04-27T12:44:56;5.82;;;3.20;;
59930;SDS011;45790;51.538;6.736;2023-04-27T12:47:21;6.63;;;2.90;;
59930;SDS011;45790;51.538;6.736;2023-04-27T12:49:46;6.97;;;2.83;;
59930;SDS011;45790;51.538;6.736;2023-04-27T12:52:12;5.63;;;3.33;;
59930;SDS011;45790;51.538;6.736;2023-04-27T12:54:37;6.18;;;3.10;;
59930;SDS011;45790;51.538;6.736;2023-04-27T12:57:03;6.40;;;3.15;;
59930;SDS011;45790;51.538;6.736;2023-04-27T12:59:34;7.35;;;3.20;;
59930;SDS011;45790;51.538;6.736;2023-04-27T13:02:00;6.80;;;2.90;;
59930;SDS011;45790;51.538;6.736;2023-04-27T13:04:29;6.75;;;3.10;;
59930;SDS011;45790;51.538;6.736;2023-04-27T13:06:57;8.10;;;3.40;;
59930;SDS011;45790;51.538;6.736;2023-04-27T13:09:25;5.25;;;3.30;;
59930;SDS011;45790;51.538;6.736;2023-04-27T13:11:50;5.95;;;3.30;;
59930;SDS011;45790;51.538;6.736;2023-04-27T13:14:16;7.80;;;3.55;;
59930;SDS011;45790;51.538;6.736;2023-04-27T13:16:42;6.10;;;3.40;;
59930;SDS011;45790;51.538;6.736;2023-04-27T13:19:07;6.03;;;3.22;;
59930;SDS011;45790;51.538;6.736;2023-04-27T13:21:32;5.63;;;3.53;;
59930;SDS011;45790;51.538;6.736;2023-04-27T13:23:58;7.53;;;3.40;;
59930;SDS011;45790;51.538;6.736;2023-04-27T13:26:23;8.30;;;3.40;;
59930;SDS011;45790;51.538;6.736;2023-04-27T13:28:48;8.00;;;3.45;;
59930;SDS011;45790;51.538;6.736;2023-04-27T13:31:14;7.30;;;3.58;;
59930;SDS011;45790;51.538;6.736;2023-04-27T13:33:40;7.90;;;3.58;;
59930;SDS011;45790;51.538;6.736;2023-04-27T13:36:06;6.63;;;3.88;;
59930;SDS011;45790;51.538;6.736;2023-04-27T13:38:31;7.28;;;3.50;;
59930;SDS011;45790;51.538;6.736;2023-04-27T13:40:59;7.20;;;3.30;;
59930;SDS011;45790;51.538;6.736;2023-04-27T13:43:24;6.82;;;3.75;;
59930;SDS011;45790;51.538;6.736;2023-04-27T13:45:51;6.88;;;3.95;;
59930;SDS011;45790;51.538;6.736;2023-04-27T13:48:20;5.40;;;3.35;;
59930;SDS011;45790;51.538;6.736;2023-04-27T13:50:45;6.32;;;3.55;;
59930;SDS011;45790;51.538;6.736;2023-04-27T13:53:11;7.85;;;3.88;;
59930;SDS011;45790;51.538;6.736;2023-04-27T13:55:36;7.43;;;3.47;;
59930;SDS011;45790;51.538;6.736;2023-04-27T13:58:02;5.82;;;4.00;;
59930;SDS011;45790;51.538;6.736;2023-04-27T14:00:27;6.70;;;3.75;;
59930;SDS011;45790;51.538;6.736;2023-04-27T14:02:57;8.13;;;4.10;;
59930;SDS011;45790;51.538;6.736;2023-04-27T14:05:22;7.97;;;4.18;;
59930;SDS011;45790;51.538;6.736;2023-04-27T14:07:47;6.15;;;3.95;;
59930;SDS011;45790;51.538;6.736;2023-04-27T14:10:12;8.07;;;3.80;;
59930;SDS011;45790;51.538;6.736;2023-04-27T14:12:38;10.40;;;3.47;;
59930;SDS011;45790;51.538;6.736;2023-04-27T14:15:04;6.30;;;3.80;;
59930;SDS011;45790;51.538;6.736;2023-04-27T14:17:30;8.10;;;4.07;;
59930;SDS011;45790;51.538;6.736;2023-04-27T14:19:55;6.20;;;3.70;;
59930;SDS011;45790;51.538;6.736;2023-04-27T14:22:20;7.80;;;4.03;;
59930;SDS011;45790;51.538;6.736;2023-04-27T14:24:45;7.63;;;3.92;;
59930;SDS011;45790;51.538;6.736;2023-04-27T14:27:14;8.65;;;4.72;;
59930;SDS011;45790;51.538;6.736;2023-04-27T14:29:41;8.13;;;4.45;;
59930;SDS011;45790;51.538;6.736;2023-04-27T14:32:08;9.13;;;4.00;;
59930;SDS011;45790;51.538;6.736;2023-04-27T14:34:34;9.60;;;4.68;;
59930;SDS011;45790;51.538;6.736;2023-04-27T14:37:00;8.77;;;4.10;;
59930;SDS011;45790;51.538;6.736;2023-04-27T14:39:25;7.35;;;4.30;;
59930;SDS011;45790;51.538;6.736;2023-04-27T14:41:53;6.50;;;4.10;;